sensor_id;sensor_type;location;lat;lon;timestamp;pressure;altitude;pressure_sealevel;temperature;humidity
76660;BME280;65579;45.534;6.212;2022-12-29T00:01:57;98635.81;;;0.51;59.67
76660;BME280;65579;45.534;6.212;2022-12-29T00:04:22;98650.74;;;-0.72;64.37
76660;BME280;65579;45.534;6.212;2022-12-29T00:06:48;98644.90;;;-1.79;70.03
76660;BME280;65579;45.534;6.212;2022-12-29T00:09:16;98640.43;;;-1.15;67.55
76660;BME280;65579;45.534;6.212;2022-12-29T00:11:39;98636.41;;;-0.22;62.72
76660;BME280;65579;45.534;6.212;2022-12-29T00:14:05;98633.15;;;0.64;58.89
76660;BME280;65579;45.534;6.212;2022-12-29T00:16:31;98629.81;;;0.91;57.94
76660;BME280;65579;45.534;6.212;2022-12-29T00:18:56;98624.24;;;0.50;58.81
76660;BME280;65579;45.534;6.212;2022-12-29T00:21:23;98624.49;;;0.19;59.58
76660;BME280;65579;45.534;6.212;2022-12-29T00:23:47;98622.12;;;0.01;58.92
76660;BME280;65579;45.534;6.212;2022-12-29T00:26:14;98629.59;;;-0.72;61.81
76660;BME280;65579;45.534;6.212;2022-12-29T00:28:39;98629.48;;;-0.19;59.53
76660;BME280;65579;45.534;6.212;2022-12-29T00:31:09;98615.34;;;0.24;59.99
76660;BME280;65579;45.534;6.212;2022-12-29T00:33:31;98616.80;;;0.89;57.11
76660;BME280;65579;45.534;6.212;2022-12-29T00:35:58;98616.58;;;0.60;58.17
76660;BME280;65579;45.534;6.212;2022-12-29T00:38:21;98617.84;;;0.57;57.66
76660;BME280;65579;45.534;6.212;2022-12-29T00:40:46;98621.59;;;1.06;56.93
76660;BME280;65579;45.534;6.212;2022-12-29T00:43:12;98628.40;;;1.01;55.86
76660;BME280;65579;45.534;6.212;2022-12-29T00:45:40;98625.83;;;1.15;56.05
76660;BME280;65579;45.534;6.212;2022-12-29T00:48:04;98617.57;;;0.78;56.98
76660;BME280;65579;45.534;6.212;2022-12-29T00:50:29;98613.15;;;0.78;56.77
76660;BME280;65579;45.534;6.212;2022-12-29T00:52:54;98616.60;;;1.34;55.31
76660;BME280;65579;45.534;6.212;2022-12-29T00:55:20;98618.07;;;0.49;56.98
76660;BME280;65579;45.534;6.212;2022-12-29T00:57:45;98612.36;;;0.80;56.38
76660;BME280;65579;45.534;6.212;2022-12-29T01:00:12;98610.17;;;0.56;56.18
76660;BME280;65579;45.534;6.212;2022-12-29T01:02:36;98605.95;;;-0.17;59.26
76660;BME280;65579;45.534;6.212;2022-12-29T01:05:02;98610.91;;;0.27;57.68
76660;BME280;65579;45.534;6.212;2022-12-29T01:07:27;98607.17;;;0.34;57.55
76660;BME280;65579;45.534;6.212;2022-12-29T01:09:52;98604.90;;;0.25;57.31
76660;BME280;65579;45.534;6.212;2022-12-29T01:12:18;98604.12;;;-0.01;59.29
76660;BME280;65579;45.534;6.212;2022-12-29T01:14:43;98604.56;;;0.28;59.06
76660;BME280;65579;45.534;6.212;2022-12-29T01:17:09;98606.55;;;0.45;57.95
76660;BME280;65579;45.534;6.212;2022-12-29T01:19:34;98597.32;;;0.49;56.97
76660;BME280;65579;45.534;6.212;2022-12-29T01:22:00;98589.55;;;0.63;56.41
76660;BME280;65579;45.534;6.212;2022-12-29T01:24:25;98593.48;;;1.00;55.88
76660;BME280;65579;45.534;6.212;2022-12-29T01:26:51;98597.74;;;0.49;57.31
76660;BME280;65579;45.534;6.212;2022-12-29T01:29:17;98601.86;;;-0.10;59.75
76660;BME280;65579;45.534;6.212;2022-12-29T01:31:42;98599.24;;;-0.07;59.00
76660;BME280;65579;45.534;6.212;2022-12-29T01:34:07;98607.06;;;-0.66;61.30
76660;BME280;65579;45.534;6.212;2022-12-29T01:36:33;98600.68;;;-0.25;59.72
76660;BME280;65579;45.534;6.212;2022-12-29T01:38:59;98597.31;;;0.31;59.33
76660;BME280;65579;45.534;6.212;2022-12-29T01:41:24;98597.07;;;0.38;57.95
76660;BME280;65579;45.534;6.212;2022-12-29T01:43:51;98589.86;;;0.16;58.59
76660;BME280;65579;45.534;6.212;2022-12-29T01:46:20;98596.70;;;0.62;58.68
76660;BME280;65579;45.534;6.212;2022-12-29T01:48:41;98608.91;;;0.36;57.82
76660;BME280;65579;45.534;6.212;2022-12-29T01:51:06;98619.92;;;-0.40;59.87
76660;BME280;65579;45.534;6.212;2022-12-29T01:53:33;98620.62;;;-1.16;63.57
76660;BME280;65579;45.534;6.212;2022-12-29T01:55:59;98617.51;;;-0.48;60.11
76660;BME280;65579;45.534;6.212;2022-12-29T01:58:24;98609.64;;;0.11;58.73
76660;BME280;65579;45.534;6.212;2022-12-29T02:00:48;98609.02;;;0.58;57.56
76660;BME280;65579;45.534;6.212;2022-12-29T02:03:13;98611.01;;;0.15;59.43
76660;BME280;65579;45.534;6.212;2022-12-29T02:05:45;98614.90;;;-0.69;64.28
76660;BME280;65579;45.534;6.212;2022-12-29T02:08:04;98616.83;;;-0.67;62.99
76660;BME280;65579;45.534;6.212;2022-12-29T02:10:31;98612.14;;;-0.23;60.22
76660;BME280;65579;45.534;6.212;2022-12-29T02:12:55;98608.67;;;0.35;57.89
76660;BME280;65579;45.534;6.212;2022-12-29T02:15:25;98608.25;;;0.39;58.61
76660;BME280;65579;45.534;6.212;2022-12-29T02:17:58;98606.90;;;0.67;57.58
76660;BME280;65579;45.534;6.212;2022-12-29T02:20:30;98604.17;;;0.49;58.79
76660;BME280;65579;45.534;6.212;2022-12-29T02:22:42;98608.61;;;-0.48;61.53
76660;BME280;65579;45.534;6.212;2022-12-29T02:25:19;98605.68;;;-0.85;61.70
76660;BME280;65579;45.534;6.212;2022-12-29T02:30:04;98601.47;;;0.75;57.24
76660;BME280;65579;45.534;6.212;2022-12-29T02:32:21;98603.14;;;0.64;57.37
76660;BME280;65579;45.534;6.212;2022-12-29T02:34:50;98605.14;;;0.67;56.65
76660;BME280;65579;45.534;6.212;2022-12-29T02:37:16;98598.64;;;0.79;56.88
76660;BME280;65579;45.534;6.212;2022-12-29T02:39:38;98594.69;;;0.65;57.15
76660;BME280;65579;45.534;6.212;2022-12-29T02:42:05;98596.49;;;1.25;55.70
76660;BME280;65579;45.534;6.212;2022-12-29T02:44:30;98598.88;;;1.27;54.81
76660;BME280;65579;45.534;6.212;2022-12-29T02:46:53;98602.60;;;0.97;55.54
76660;BME280;65579;45.534;6.212;2022-12-29T02:49:20;98602.76;;;0.94;56.44
76660;BME280;65579;45.534;6.212;2022-12-29T02:51:47;98597.39;;;0.96;56.63
76660;BME280;65579;45.534;6.212;2022-12-29T02:54:06;98590.64;;;1.03;55.97
76660;BME280;65579;45.534;6.212;2022-12-29T02:56:32;98581.78;;;1.25;55.31
76660;BME280;65579;45.534;6.212;2022-12-29T02:58:57;98583.90;;;1.51;54.78
76660;BME280;65579;45.534;6.212;2022-12-29T03:01:30;98584.55;;;1.99;54.56
76660;BME280;65579;45.534;6.212;2022-12-29T03:03:58;98575.48;;;1.67;55.10
76660;BME280;65579;45.534;6.212;2022-12-29T03:06:22;98580.06;;;0.86;57.61
76660;BME280;65579;45.534;6.212;2022-12-29T03:08:46;98573.62;;;1.33;56.05
76660;BME280;65579;45.534;6.212;2022-12-29T03:11:06;98578.05;;;1.30;55.27
76660;BME280;65579;45.534;6.212;2022-12-29T03:13:35;98582.36;;;0.96;56.59
76660;BME280;65579;45.534;6.212;2022-12-29T03:16:01;98575.00;;;1.51;55.57
76660;BME280;65579;45.534;6.212;2022-12-29T03:18:23;98568.14;;;1.64;55.55
76660;BME280;65579;45.534;6.212;2022-12-29T03:20:51;98561.28;;;1.77;54.99
76660;BME280;65579;45.534;6.212;2022-12-29T03:23:13;98559.99;;;1.85;54.99
76660;BME280;65579;45.534;6.212;2022-12-29T03:25:42;98559.03;;;2.11;54.76
76660;BME280;65579;45.534;6.212;2022-12-29T03:28:06;98558.27;;;2.16;54.40
76660;BME280;65579;45.534;6.212;2022-12-29T03:30:29;98552.03;;;1.73;55.39
76660;BME280;65579;45.534;6.212;2022-12-29T03:32:55;98553.48;;;1.34;55.73
76660;BME280;65579;45.534;6.212;2022-12-29T03:35:21;98547.54;;;1.34;56.75
76660;BME280;65579;45.534;6.212;2022-12-29T03:37:50;98550.11;;;0.62;58.73
76660;BME280;65579;45.534;6.212;2022-12-29T03:40:10;98548.80;;;1.11;56.64
76660;BME280;65579;45.534;6.212;2022-12-29T03:42:36;98547.69;;;0.85;58.64
76660;BME280;65579;45.534;6.212;2022-12-29T03:45:01;98556.80;;;0.45;60.09
76660;BME280;65579;45.534;6.212;2022-12-29T03:47:26;98560.98;;;1.21;59.19
76660;BME280;65579;45.534;6.212;2022-12-29T03:49:52;98560.38;;;0.73;58.35
76660;BME280;65579;45.534;6.212;2022-12-29T03:52:18;98549.90;;;1.63;56.51
76660;BME280;65579;45.534;6.212;2022-12-29T03:54:45;98539.65;;;1.13;57.98
76660;BME280;65579;45.534;6.212;2022-12-29T03:57:09;98526.36;;;1.76;56.94
76660;BME280;65579;45.534;6.212;2022-12-29T03:59:34;98527.16;;;1.62;55.54
76660;BME280;65579;45.534;6.212;2022-12-29T04:02:00;98525.77;;;1.98;55.70
76660;BME280;65579;45.534;6.212;2022-12-29T04:04:25;98526.98;;;1.70;55.79
76660;BME280;65579;45.534;6.212;2022-12-29T04:06:51;98530.14;;;2.15;54.68
76660;BME280;65579;45.534;6.212;2022-12-29T04:09:16;98533.72;;;2.10;55.93
76660;BME280;65579;45.534;6.212;2022-12-29T04:11:41;98537.03;;;2.29;55.19
76660;BME280;65579;45.534;6.212;2022-12-29T04:14:06;98540.99;;;1.95;54.78
76660;BME280;65579;45.534;6.212;2022-12-29T04:16:31;98543.74;;;1.68;55.70
76660;BME280;65579;45.534;6.212;2022-12-29T04:18:56;98542.76;;;1.80;55.18
76660;BME280;65579;45.534;6.212;2022-12-29T04:21:22;98542.03;;;1.28;58.02
76660;BME280;65579;45.534;6.212;2022-12-29T04:23:47;98544.29;;;1.06;58.21
76660;BME280;65579;45.534;6.212;2022-12-29T04:26:13;98542.69;;;1.59;57.36
76660;BME280;65579;45.534;6.212;2022-12-29T04:28:38;98537.57;;;1.62;57.60
76660;BME280;65579;45.534;6.212;2022-12-29T04:31:04;98530.96;;;1.75;56.58
76660;BME280;65579;45.534;6.212;2022-12-29T04:33:28;98526.17;;;1.28;57.38
76660;BME280;65579;45.534;6.212;2022-12-29T04:35:54;98530.33;;;1.82;55.82
76660;BME280;65579;45.534;6.212;2022-12-29T04:38:20;98539.55;;;2.26;54.87
76660;BME280;65579;45.534;6.212;2022-12-29T04:40:46;98544.96;;;2.19;55.62
76660;BME280;65579;45.534;6.212;2022-12-29T04:43:11;98545.52;;;2.04;55.08
76660;BME280;65579;45.534;6.212;2022-12-29T04:45:36;98544.32;;;2.16;55.25
76660;BME280;65579;45.534;6.212;2022-12-29T04:48:02;98537.24;;;1.79;57.32
76660;BME280;65579;45.534;6.212;2022-12-29T04:50:27;98537.22;;;2.01;56.24
76660;BME280;65579;45.534;6.212;2022-12-29T04:52:53;98539.44;;;2.60;54.97
76660;BME280;65579;45.534;6.212;2022-12-29T04:55:18;98557.60;;;2.13;54.65
76660;BME280;65579;45.534;6.212;2022-12-29T04:57:44;98570.40;;;2.27;54.73
76660;BME280;65579;45.534;6.212;2022-12-29T05:00:10;98559.78;;;1.78;55.69
76660;BME280;65579;45.534;6.212;2022-12-29T05:02:34;98553.60;;;2.03;55.85
76660;BME280;65579;45.534;6.212;2022-12-29T05:04:59;98546.73;;;1.55;56.26
76660;BME280;65579;45.534;6.212;2022-12-29T05:07:25;98551.63;;;2.43;55.11
76660;BME280;65579;45.534;6.212;2022-12-29T05:09:51;98554.61;;;2.07;55.34
76660;BME280;65579;45.534;6.212;2022-12-29T05:12:16;98541.64;;;2.17;54.45
76660;BME280;65579;45.534;6.212;2022-12-29T05:14:42;98527.93;;;1.44;57.39
76660;BME280;65579;45.534;6.212;2022-12-29T05:17:07;98535.89;;;0.24;61.37
76660;BME280;65579;45.534;6.212;2022-12-29T05:19:32;98534.14;;;1.23;59.21
76660;BME280;65579;45.534;6.212;2022-12-29T05:21:58;98545.11;;;1.52;57.74
76660;BME280;65579;45.534;6.212;2022-12-29T05:24:24;98553.44;;;2.03;56.39
76660;BME280;65579;45.534;6.212;2022-12-29T05:26:49;98555.77;;;2.34;55.58
76660;BME280;65579;45.534;6.212;2022-12-29T05:29:14;98550.60;;;2.25;54.67
76660;BME280;65579;45.534;6.212;2022-12-29T05:31:39;98551.50;;;2.44;54.05
76660;BME280;65579;45.534;6.212;2022-12-29T05:34:05;98547.99;;;2.11;55.12
76660;BME280;65579;45.534;6.212;2022-12-29T05:36:30;98546.14;;;1.89;55.66
76660;BME280;65579;45.534;6.212;2022-12-29T05:38:56;98548.73;;;2.11;55.15
76660;BME280;65579;45.534;6.212;2022-12-29T05:41:21;98541.38;;;2.37;55.22
76660;BME280;65579;45.534;6.212;2022-12-29T05:43:46;98541.96;;;2.49;54.73
76660;BME280;65579;45.534;6.212;2022-12-29T05:46:12;98549.04;;;2.62;55.06
76660;BME280;65579;45.534;6.212;2022-12-29T05:48:38;98557.51;;;2.31;54.90
76660;BME280;65579;45.534;6.212;2022-12-29T05:51:03;98553.85;;;2.01;55.76
76660;BME280;65579;45.534;6.212;2022-12-29T05:53:29;98555.25;;;2.65;55.25
76660;BME280;65579;45.534;6.212;2022-12-29T05:55:54;98548.50;;;1.88;56.22
76660;BME280;65579;45.534;6.212;2022-12-29T05:58:20;98543.34;;;2.27;54.99
76660;BME280;65579;45.534;6.212;2022-12-29T06:00:46;98547.57;;;2.58;54.15
76660;BME280;65579;45.534;6.212;2022-12-29T06:03:11;98550.49;;;2.99;53.79
76660;BME280;65579;45.534;6.212;2022-12-29T06:05:36;98550.66;;;2.78;53.66
76660;BME280;65579;45.534;6.212;2022-12-29T06:08:01;98557.72;;;2.34;54.23
76660;BME280;65579;45.534;6.212;2022-12-29T06:10:27;98553.65;;;2.28;54.81
76660;BME280;65579;45.534;6.212;2022-12-29T06:12:54;98551.15;;;1.82;55.05
76660;BME280;65579;45.534;6.212;2022-12-29T06:15:18;98549.46;;;1.35;56.79
76660;BME280;65579;45.534;6.212;2022-12-29T06:17:44;98558.66;;;2.19;54.51
76660;BME280;65579;45.534;6.212;2022-12-29T06:20:10;98562.26;;;1.38;57.90
76660;BME280;65579;45.534;6.212;2022-12-29T06:22:35;98563.23;;;2.40;56.35
76660;BME280;65579;45.534;6.212;2022-12-29T06:25:01;98560.76;;;2.32;55.11
76660;BME280;65579;45.534;6.212;2022-12-29T06:27:26;98565.39;;;2.64;54.16
76660;BME280;65579;45.534;6.212;2022-12-29T06:29:52;98564.42;;;2.69;53.88
76660;BME280;65579;45.534;6.212;2022-12-29T06:32:18;98562.02;;;2.89;54.01
76660;BME280;65579;45.534;6.212;2022-12-29T06:34:43;98557.91;;;2.79;53.08
76660;BME280;65579;45.534;6.212;2022-12-29T06:37:09;98567.39;;;3.14;54.14
76660;BME280;65579;45.534;6.212;2022-12-29T06:39:35;98576.01;;;2.90;54.41
76660;BME280;65579;45.534;6.212;2022-12-29T06:42:00;98580.02;;;2.83;54.82
76660;BME280;65579;45.534;6.212;2022-12-29T06:44:25;98583.74;;;2.77;54.57
76660;BME280;65579;45.534;6.212;2022-12-29T06:46:50;98579.37;;;2.40;55.36
76660;BME280;65579;45.534;6.212;2022-12-29T06:49:16;98578.86;;;2.82;55.33
76660;BME280;65579;45.534;6.212;2022-12-29T06:51:41;98582.24;;;2.96;55.15
76660;BME280;65579;45.534;6.212;2022-12-29T06:54:07;98583.22;;;2.24;57.40
76660;BME280;65579;45.534;6.212;2022-12-29T06:56:32;98587.04;;;1.65;59.39
76660;BME280;65579;45.534;6.212;2022-12-29T06:58:57;98593.80;;;2.36;56.80
76660;BME280;65579;45.534;6.212;2022-12-29T07:01:23;98591.03;;;2.58;55.61
76660;BME280;65579;45.534;6.212;2022-12-29T07:03:48;98599.08;;;2.87;55.38
76660;BME280;65579;45.534;6.212;2022-12-29T07:06:13;98597.10;;;1.81;58.75
76660;BME280;65579;45.534;6.212;2022-12-29T07:08:41;98590.11;;;1.86;58.80
76660;BME280;65579;45.534;6.212;2022-12-29T07:11:04;98584.68;;;2.26;57.83
76660;BME280;65579;45.534;6.212;2022-12-29T07:13:30;98585.44;;;2.45;55.94
76660;BME280;65579;45.534;6.212;2022-12-29T07:15:55;98596.10;;;3.11;54.76
76660;BME280;65579;45.534;6.212;2022-12-29T07:18:20;98591.08;;;2.10;56.78
76660;BME280;65579;45.534;6.212;2022-12-29T07:20:45;98584.04;;;2.42;57.29
76660;BME280;65579;45.534;6.212;2022-12-29T07:23:11;98589.21;;;2.62;56.32
76660;BME280;65579;45.534;6.212;2022-12-29T07:25:36;98593.49;;;3.18;54.74
76660;BME280;65579;45.534;6.212;2022-12-29T07:28:02;98599.37;;;3.13;54.56
76660;BME280;65579;45.534;6.212;2022-12-29T07:30:27;98605.43;;;3.22;54.75
76660;BME280;65579;45.534;6.212;2022-12-29T07:32:53;98613.51;;;2.76;55.23
76660;BME280;65579;45.534;6.212;2022-12-29T07:35:19;98617.32;;;2.12;57.48
76660;BME280;65579;45.534;6.212;2022-12-29T07:37:44;98618.90;;;2.48;57.98
76660;BME280;65579;45.534;6.212;2022-12-29T07:40:11;98632.54;;;1.20;61.09
76660;BME280;65579;45.534;6.212;2022-12-29T07:42:35;98637.18;;;2.04;59.27
76660;BME280;65579;45.534;6.212;2022-12-29T07:45:01;98632.50;;;1.21;61.95
76660;BME280;65579;45.534;6.212;2022-12-29T07:47:26;98622.71;;;0.88;63.45
76660;BME280;65579;45.534;6.212;2022-12-29T07:49:51;98619.47;;;1.56;60.36
76660;BME280;65579;45.534;6.212;2022-12-29T07:52:17;98629.19;;;2.32;58.95
76660;BME280;65579;45.534;6.212;2022-12-29T07:54:42;98634.17;;;1.51;60.65
76660;BME280;65579;45.534;6.212;2022-12-29T07:57:07;98627.07;;;2.20;58.82
76660;BME280;65579;45.534;6.212;2022-12-29T07:59:33;98618.92;;;2.31;58.55
76660;BME280;65579;45.534;6.212;2022-12-29T08:01:58;98619.78;;;1.06;64.23
76660;BME280;65579;45.534;6.212;2022-12-29T08:04:23;98617.18;;;0.97;65.07
76660;BME280;65579;45.534;6.212;2022-12-29T08:06:49;98619.48;;;1.85;61.22
76660;BME280;65579;45.534;6.212;2022-12-29T08:09:15;98615.99;;;2.41;58.00
76660;BME280;65579;45.534;6.212;2022-12-29T08:11:41;98613.39;;;2.66;58.50
76660;BME280;65579;45.534;6.212;2022-12-29T08:14:06;98615.39;;;3.10;56.74
76660;BME280;65579;45.534;6.212;2022-12-29T08:16:32;98611.41;;;3.52;56.58
76660;BME280;65579;45.534;6.212;2022-12-29T08:18:57;98612.38;;;3.62;55.62
76660;BME280;65579;45.534;6.212;2022-12-29T08:21:22;98611.20;;;3.71;55.16
76660;BME280;65579;45.534;6.212;2022-12-29T08:23:49;98613.87;;;3.71;55.87
76660;BME280;65579;45.534;6.212;2022-12-29T08:26:14;98618.70;;;3.45;58.42
76660;BME280;65579;45.534;6.212;2022-12-29T08:28:39;98615.81;;;3.44;56.73
76660;BME280;65579;45.534;6.212;2022-12-29T08:31:07;98610.21;;;3.08;57.53
76660;BME280;65579;45.534;6.212;2022-12-29T08:33:31;98606.17;;;3.85;56.15
76660;BME280;65579;45.534;6.212;2022-12-29T08:35:59;98601.15;;;4.38;54.83
76660;BME280;65579;45.534;6.212;2022-12-29T08:38:22;98597.41;;;4.33;54.62
76660;BME280;65579;45.534;6.212;2022-12-29T08:40:46;98596.29;;;4.29;54.43
76660;BME280;65579;45.534;6.212;2022-12-29T08:43:12;98596.34;;;3.87;54.90
76660;BME280;65579;45.534;6.212;2022-12-29T08:45:37;98594.96;;;4.35;54.83
76660;BME280;65579;45.534;6.212;2022-12-29T08:48:04;98592.22;;;4.23;55.46
76660;BME280;65579;45.534;6.212;2022-12-29T08:50:28;98591.47;;;4.41;55.59
76660;BME280;65579;45.534;6.212;2022-12-29T08:52:54;98590.66;;;3.99;56.31
76660;BME280;65579;45.534;6.212;2022-12-29T08:55:20;98581.30;;;4.14;55.72
76660;BME280;65579;45.534;6.212;2022-12-29T08:57:45;98583.19;;;4.36;55.51
76660;BME280;65579;45.534;6.212;2022-12-29T09:00:12;98582.56;;;4.35;56.14
76660;BME280;65579;45.534;6.212;2022-12-29T09:02:37;98584.94;;;4.29;55.91
76660;BME280;65579;45.534;6.212;2022-12-29T09:05:02;98586.96;;;4.60;55.55
76660;BME280;65579;45.534;6.212;2022-12-29T09:07:28;98586.89;;;4.23;56.11
76660;BME280;65579;45.534;6.212;2022-12-29T09:09:53;98582.10;;;4.29;56.19
76660;BME280;65579;45.534;6.212;2022-12-29T09:12:18;98585.05;;;4.48;55.63
76660;BME280;65579;45.534;6.212;2022-12-29T09:14:46;98582.76;;;4.70;55.73
76660;BME280;65579;45.534;6.212;2022-12-29T09:17:10;98576.97;;;4.82;54.40
76660;BME280;65579;45.534;6.212;2022-12-29T09:19:34;98576.40;;;4.66;54.33
76660;BME280;65579;45.534;6.212;2022-12-29T09:22:00;98580.97;;;4.53;54.80
76660;BME280;65579;45.534;6.212;2022-12-29T09:24:27;98584.02;;;4.57;53.96
76660;BME280;65579;45.534;6.212;2022-12-29T09:26:51;98589.11;;;3.76;55.41
76660;BME280;65579;45.534;6.212;2022-12-29T09:29:17;98577.54;;;4.12;55.62
76660;BME280;65579;45.534;6.212;2022-12-29T09:31:42;98577.43;;;4.35;55.64
76660;BME280;65579;45.534;6.212;2022-12-29T09:34:08;98573.96;;;4.70;55.51
76660;BME280;65579;45.534;6.212;2022-12-29T09:36:35;98580.65;;;4.87;54.36
76660;BME280;65579;45.534;6.212;2022-12-29T09:38:59;98586.15;;;4.50;54.39
76660;BME280;65579;45.534;6.212;2022-12-29T09:41:29;98587.28;;;4.55;54.33
76660;BME280;65579;45.534;6.212;2022-12-29T09:44:03;98587.38;;;4.75;53.49
76660;BME280;65579;45.534;6.212;2022-12-29T09:46:22;98586.07;;;5.22;52.13
76660;BME280;65579;45.534;6.212;2022-12-29T09:48:45;98583.03;;;5.57;51.85
76660;BME280;65579;45.534;6.212;2022-12-29T09:51:10;98583.84;;;5.50;52.61
76660;BME280;65579;45.534;6.212;2022-12-29T09:53:37;98585.48;;;5.21;52.23
76660;BME280;65579;45.534;6.212;2022-12-29T09:56:01;98580.45;;;5.41;51.21
76660;BME280;65579;45.534;6.212;2022-12-29T09:58:26;98578.05;;;5.22;53.15
76660;BME280;65579;45.534;6.212;2022-12-29T10:00:54;98576.41;;;5.56;53.74
76660;BME280;65579;45.534;6.212;2022-12-29T10:03:17;98570.98;;;4.11;55.82
76660;BME280;65579;45.534;6.212;2022-12-29T10:05:46;98576.86;;;4.17;55.96
76660;BME280;65579;45.534;6.212;2022-12-29T10:08:18;98575.17;;;4.76;54.22
76660;BME280;65579;45.534;6.212;2022-12-29T10:10:36;98571.32;;;4.32;54.22
76660;BME280;65579;45.534;6.212;2022-12-29T10:13:03;98568.30;;;4.79;54.71
76660;BME280;65579;45.534;6.212;2022-12-29T10:15:33;98562.52;;;4.65;56.10
76660;BME280;65579;45.534;6.212;2022-12-29T10:17:52;98556.84;;;5.39;53.27
76660;BME280;65579;45.534;6.212;2022-12-29T10:20:21;98550.28;;;5.44;53.00
76660;BME280;65579;45.534;6.212;2022-12-29T10:22:47;98549.79;;;5.17;53.87
76660;BME280;65579;45.534;6.212;2022-12-29T10:25:11;98543.23;;;5.40;52.93
76660;BME280;65579;45.534;6.212;2022-12-29T10:27:31;98538.90;;;5.11;53.69
76660;BME280;65579;45.534;6.212;2022-12-29T10:29:56;98532.61;;;5.09;53.45
76660;BME280;65579;45.534;6.212;2022-12-29T10:32:27;98524.46;;;5.59;52.76
76660;BME280;65579;45.534;6.212;2022-12-29T10:34:48;98523.45;;;6.02;50.79
76660;BME280;65579;45.534;6.212;2022-12-29T10:37:17;98527.61;;;6.54;49.36
76660;BME280;65579;45.534;6.212;2022-12-29T10:39:40;98525.62;;;6.90;48.58
76660;BME280;65579;45.534;6.212;2022-12-29T10:42:09;98522.93;;;6.23;48.52
76660;BME280;65579;45.534;6.212;2022-12-29T10:44:30;98511.01;;;5.72;50.86
76660;BME280;65579;45.534;6.212;2022-12-29T10:46:57;98504.44;;;5.63;51.76
76660;BME280;65579;45.534;6.212;2022-12-29T10:49:18;98493.56;;;6.67;49.72
76660;BME280;65579;45.534;6.212;2022-12-29T10:51:46;98485.34;;;7.03;48.66
76660;BME280;65579;45.534;6.212;2022-12-29T10:54:14;98485.55;;;7.03;48.11
76660;BME280;65579;45.534;6.212;2022-12-29T10:56:35;98483.33;;;7.41;45.20
76660;BME280;65579;45.534;6.212;2022-12-29T10:59:10;98482.39;;;7.46;45.10
76660;BME280;65579;45.534;6.212;2022-12-29T11:01:31;98477.97;;;6.82;46.35
76660;BME280;65579;45.534;6.212;2022-12-29T11:04:01;98477.74;;;7.26;45.68
76660;BME280;65579;45.534;6.212;2022-12-29T11:06:21;98468.96;;;7.05;44.84
76660;BME280;65579;45.534;6.212;2022-12-29T11:08:48;98463.05;;;7.41;44.31
76660;BME280;65579;45.534;6.212;2022-12-29T11:11:08;98460.15;;;7.46;44.82
76660;BME280;65579;45.534;6.212;2022-12-29T11:13:33;98453.33;;;6.93;46.37
76660;BME280;65579;45.534;6.212;2022-12-29T11:15:57;98440.68;;;7.28;46.32
76660;BME280;65579;45.534;6.212;2022-12-29T11:18:24;98431.54;;;7.63;45.54
76660;BME280;65579;45.534;6.212;2022-12-29T11:20:48;98427.74;;;7.16;43.35
76660;BME280;65579;45.534;6.212;2022-12-29T11:23:22;98424.46;;;6.96;44.55
76660;BME280;65579;45.534;6.212;2022-12-29T11:25:38;98419.92;;;6.35;46.14
76660;BME280;65579;45.534;6.212;2022-12-29T11:28:13;98415.85;;;7.04;45.73
76660;BME280;65579;45.534;6.212;2022-12-29T11:30:31;98408.74;;;6.91;43.10
76660;BME280;65579;45.534;6.212;2022-12-29T11:32:55;98404.18;;;7.03;41.99
76660;BME280;65579;45.534;6.212;2022-12-29T11:35:31;98404.60;;;7.27;43.20
76660;BME280;65579;45.534;6.212;2022-12-29T11:37:46;98396.70;;;7.27;45.22
76660;BME280;65579;45.534;6.212;2022-12-29T11:40:17;98386.24;;;7.51;43.89
76660;BME280;65579;45.534;6.212;2022-12-29T11:42:37;98377.13;;;7.39;44.08
76660;BME280;65579;45.534;6.212;2022-12-29T11:45:13;98368.76;;;7.10;44.15
76660;BME280;65579;45.534;6.212;2022-12-29T11:47:29;98367.67;;;6.38;46.69
76660;BME280;65579;45.534;6.212;2022-12-29T11:49:55;98363.52;;;6.27;46.81
76660;BME280;65579;45.534;6.212;2022-12-29T11:52:23;98354.83;;;6.64;46.62
76660;BME280;65579;45.534;6.212;2022-12-29T11:54:43;98346.98;;;7.02;45.59
76660;BME280;65579;45.534;6.212;2022-12-29T11:57:11;98350.10;;;6.27;46.85
76660;BME280;65579;45.534;6.212;2022-12-29T11:59:42;98351.03;;;6.36;46.97
76660;BME280;65579;45.534;6.212;2022-12-29T12:02:00;98345.84;;;7.07;44.69
76660;BME280;65579;45.534;6.212;2022-12-29T12:04:27;98339.14;;;6.77;45.70
76660;BME280;65579;45.534;6.212;2022-12-29T12:07:00;98336.45;;;7.35;43.59
76660;BME280;65579;45.534;6.212;2022-12-29T12:09:22;98334.69;;;8.26;43.20
76660;BME280;65579;45.534;6.212;2022-12-29T12:11:43;98331.96;;;7.65;42.58
76660;BME280;65579;45.534;6.212;2022-12-29T12:14:12;98329.10;;;7.87;43.39
76660;BME280;65579;45.534;6.212;2022-12-29T12:16:35;98322.46;;;8.03;44.71
76660;BME280;65579;45.534;6.212;2022-12-29T12:19:01;98318.51;;;8.27;44.21
76660;BME280;65579;45.534;6.212;2022-12-29T12:21:27;98315.19;;;8.73;43.60
76660;BME280;65579;45.534;6.212;2022-12-29T12:24:02;98305.41;;;8.71;43.97
76660;BME280;65579;45.534;6.212;2022-12-29T12:26:13;98303.64;;;9.08;41.61
76660;BME280;65579;45.534;6.212;2022-12-29T12:28:43;98299.29;;;9.16;38.23
76660;BME280;65579;45.534;6.212;2022-12-29T12:31:06;98296.56;;;9.19;39.55
76660;BME280;65579;45.534;6.212;2022-12-29T12:33:32;98294.77;;;9.27;42.52
76660;BME280;65579;45.534;6.212;2022-12-29T12:36:09;98288.66;;;9.28;42.14
76660;BME280;65579;45.534;6.212;2022-12-29T12:38:26;98282.92;;;9.42;38.43
76660;BME280;65579;45.534;6.212;2022-12-29T12:40:56;98273.72;;;9.57;38.92
76660;BME280;65579;45.534;6.212;2022-12-29T12:43:24;98266.72;;;9.87;39.34
76660;BME280;65579;45.534;6.212;2022-12-29T12:45:45;98265.94;;;9.56;37.34
76660;BME280;65579;45.534;6.212;2022-12-29T12:48:12;98264.73;;;9.32;39.30
76660;BME280;65579;45.534;6.212;2022-12-29T12:50:39;98269.00;;;9.21;37.61
76660;BME280;65579;45.534;6.212;2022-12-29T12:55:31;98272.12;;;9.80;38.71
76660;BME280;65579;45.534;6.212;2022-12-29T12:57:51;98269.04;;;9.58;37.47
76660;BME280;65579;45.534;6.212;2022-12-29T13:00:12;98262.75;;;9.57;37.45
76660;BME280;65579;45.534;6.212;2022-12-29T13:02:41;98258.73;;;9.85;37.51
76660;BME280;65579;45.534;6.212;2022-12-29T13:05:19;98256.96;;;10.34;36.66